Upper Sugarloaf Key, Florida
Current Conditions -  °F | °C
As of 8:53 AM on Thursday 30 Oct 2014 (Local Time) from KNQX Reporting Station
Scattered Clouds Scattered Clouds  
Wind Chill: 79°   Ceiling: Unl
Heat Index: 82°   Visibility: 10mi
Dew Point: 70°   Wind: 7mph
Humidity: 74%   Direction: 70°ENE
Pressure: 29.98"   Gusts: NA
Location:  24.6465°N, 81.5399°W
Report Text: KNQX 301253Z 07006KT 10SM FEW022 SCT080 26/21 A2998 RMK AO2 SLP150 T02610211 $
Loading
Personal Weather Stations






























Interactive Weather Map
Tropical Storm Tracking
New forecast layout! Learn more

10-Day Weather Forecast

Advertisements
Track Severe Weather on mobile